Time;durP1;ratioP1;P1;durP2;ratioP2;P2;SDS_P1;SDS_P2;PMS_P1;PMS_P2;Temp;Humidity;BMP_temperature;BMP_pressure;BME280_temperature;BME280_humidity;BME280_pressure;Samples;Min_cycle;Max_cycle;Signal;HPM_P1;HPM_P2
2023/03/23 00:01:52;;;;;;;18.35;13.10;;;;;;;11.74;99.50;100146.97;5050804;28;20040;-46
2023/03/23 00:04:17;;;;;;;19.33;13.60;;;;;;;11.73;99.42;100145.34;5051181;28;20033;-43
2023/03/23 00:06:45;;;;;;;18.75;13.15;;;;;;;11.64;99.54;100131.53;5050591;28;20479;-45
2023/03/23 00:09:11;;;;;;;18.98;12.88;;;;;;;11.67;99.53;100156.59;5051552;28;20017;-45
2023/03/23 00:11:36;;;;;;;19.30;13.65;;;;;;;11.66;99.42;100163.28;5051591;28;20654;-44
2023/03/23 00:14:02;;;;;;;19.88;12.95;;;;;;;11.68;99.88;100152.69;5051435;28;20104;-43
2023/03/23 00:16:32;;;;;;;19.48;13.20;;;;;;;11.70;99.82;100138.50;5051450;28;20194;-45
2023/03/23 00:19:02;;;;;;;18.48;13.18;;;;;;;11.71;99.26;100134.59;5051360;28;20391;-46
2023/03/23 00:21:34;;;;;;;19.15;13.32;;;;;;;11.71;99.58;100140.94;5044482;28;20321;-42
2023/03/23 00:24:09;;;;;;;21.58;13.48;;;;;;;11.71;99.66;100153.97;5049691;28;20021;-44
2023/03/23 00:26:39;;;;;;;20.73;13.30;;;;;;;11.76;99.74;100164.88;5050261;28;20029;-43
2023/03/23 00:29:07;;;;;;;20.23;13.30;;;;;;;11.76;98.95;100153.00;5051291;28;20029;-44
2023/03/23 00:31:34;;;;;;;19.08;13.30;;;;;;;11.78;99.33;100143.19;5051069;28;20032;-42
2023/03/23 00:34:03;;;;;;;18.92;13.10;;;;;;;11.79;99.40;100147.59;5049798;28;20029;-47
2023/03/23 00:36:29;;;;;;;18.10;12.90;;;;;;;11.76;99.28;100153.00;5051136;28;20036;-44
2023/03/23 00:38:57;;;;;;;18.80;12.93;;;;;;;11.75;98.97;100154.13;5050850;28;20029;-46
2023/03/23 00:41:26;;;;;;;19.90;13.50;;;;;;;11.75;98.99;100154.13;5051517;28;20021;-45
2023/03/23 00:43:52;;;;;;;19.05;13.40;;;;;;;11.73;99.06;100159.19;5050981;28;20029;-44
2023/03/23 00:46:20;;;;;;;18.85;13.23;;;;;;;11.71;99.10;100153.97;5049844;28;20041;-47
2023/03/23 00:48:46;;;;;;;18.55;13.35;;;;;;;11.74;99.48;100150.56;5053968;28;20032;-45
2023/03/23 00:51:12;;;;;;;19.33;13.68;;;;;;;11.75;99.37;100151.38;5054685;28;20028;-44
2023/03/23 00:53:39;;;;;;;21.40;13.48;;;;;;;11.76;99.19;100147.44;5054695;28;20025;-43
2023/03/23 00:56:06;;;;;;;20.27;13.50;;;;;;;11.77;99.75;100129.69;5054696;28;20079;-44
2023/03/23 00:58:31;;;;;;;19.13;13.55;;;;;;;11.79;99.96;100138.47;5054592;28;20204;-44
2023/03/23 01:00:56;;;;;;;18.60;13.75;;;;;;;11.76;99.83;100131.63;5054662;28;20060;-43
2023/03/23 01:03:25;;;;;;;20.08;13.82;;;;;;;11.79;100.00;100132.94;5054335;28;20033;-47
2023/03/23 01:05:51;;;;;;;19.63;13.98;;;;;;;11.79;100.00;100128.19;5054671;28;20498;-45
2023/03/23 01:08:18;;;;;;;18.55;13.52;;;;;;;11.76;100.00;100105.88;5054351;28;20116;-47
2023/03/23 01:10:44;;;;;;;20.05;14.15;;;;;;;11.76;100.00;100097.56;5054434;28;20052;-44
2023/03/23 01:13:10;;;;;;;19.70;13.68;;;;;;;11.79;100.00;100103.25;5054410;28;20079;-45
2023/03/23 01:15:35;;;;;;;19.02;13.63;;;;;;;11.79;100.00;100103.25;5054490;28;20041;-44
2023/03/23 01:18:01;;;;;;;19.05;13.88;;;;;;;11.80;100.00;100110.44;5054466;28;20032;-45
2023/03/23 01:20:28;;;;;;;17.85;13.35;;;;;;;11.81;100.00;100083.50;5053999;28;20484;-45
2023/03/23 01:22:59;;;;;;;19.45;13.52;;;;;;;11.84;100.00;100075.38;5046598;28;20029;-45
2023/03/23 01:25:26;;;;;;;18.60;13.43;;;;;;;11.90;100.00;100075.19;5053068;28;20480;-46
2023/03/23 01:27:51;;;;;;;19.55;13.73;;;;;;;11.91;100.00;100062.94;5054126;28;20394;-45
2023/03/23 01:30:16;;;;;;;18.27;13.52;;;;;;;11.94;100.00;100074.16;5052518;28;20468;-46
2023/03/23 01:32:42;;;;;;;18.70;13.45;;;;;;;11.95;99.70;100070.25;5052505;28;20028;-45
2023/03/23 01:35:08;;;;;;;17.95;13.30;;;;;;;11.93;100.00;100066.19;5053906;28;20066;-45
2023/03/23 01:37:33;;;;;;;19.00;13.70;;;;;;;11.91;99.98;100072.06;5053850;28;20024;-45
2023/03/23 01:39:58;;;;;;;18.77;13.65;;;;;;;11.92;100.00;100061.81;5053759;28;20053;-45
2023/03/23 01:42:30;;;;;;;20.42;13.55;;;;;;;11.92;100.00;100067.34;5053129;28;20021;-43
2023/03/23 01:44:55;;;;;;;23.23;13.77;;;;;;;11.96;100.00;100066.34;5053780;28;20169;-44
2023/03/23 01:47:23;;;;;;;19.30;13.50;;;;;;;11.92;99.96;100070.13;5053539;28;20108;-45
2023/03/23 01:49:49;;;;;;;19.92;13.63;;;;;;;11.92;99.94;100070.13;5053343;28;20059;-43
2023/03/23 01:52:21;;;;;;;18.83;13.23;;;;;;;11.93;99.87;100068.97;5053672;28;20472;-44
2023/03/23 01:54:48;;;;;;;19.90;14.02;;;;;;;11.94;99.79;100073.38;5053710;28;20029;-45
2023/03/23 01:57:16;;;;;;;18.10;13.05;;;;;;;11.94;100.00;100060.31;5053478;28;20104;-45
2023/03/23 01:59:45;;;;;;;18.20;13.23;;;;;;;12.01;99.30;100054.28;5051611;28;20027;-46
2023/03/23 02:02:12;;;;;;;19.02;13.35;;;;;;;12.04;99.11;100050.84;5053072;28;20021;-45
2023/03/23 02:04:39;;;;;;;19.40;13.25;;;;;;;12.09;98.85;100056.19;5053413;28;20392;-46
2023/03/23 02:07:04;;;;;;;19.60;13.88;;;;;;;12.10;98.96;100038.41;5053217;28;20119;-44
2023/03/23 02:09:30;;;;;;;19.23;14.20;;;;;;;12.12;99.29;100038.06;5053355;28;20100;-44
2023/03/23 02:11:56;;;;;;;18.50;13.65;;;;;;;12.12;98.59;100033.34;5053304;28;20388;-46
2023/03/23 02:14:24;;;;;;;18.88;13.65;;;;;;;12.05;98.51;100038.59;5053199;28;20099;-45
2023/03/23 02:17:25;;;;;;;19.70;13.80;;;;;;;12.12;98.80;100035.28;5053152;28;20029;-46
2023/03/23 02:19:53;;;;;;;18.85;13.18;;;;;;;12.08;98.61;100026.03;5053185;28;20291;-44
2023/03/23 02:22:40;;;;;;;19.52;13.20;;;;;;;12.09;98.61;100033.19;5045412;28;20037;-46
2023/03/23 02:25:24;;;;;;;19.13;13.70;;;;;;;12.08;98.16;100034.34;5052986;28;20474;-45
2023/03/23 02:27:49;;;;;;;19.42;13.68;;;;;;;12.06;98.73;100023.56;5053041;28;20021;-46
2023/03/23 02:30:52;;;;;;;18.83;13.70;;;;;;;12.08;98.55;100031.56;5052894;28;20082;-48
2023/03/23 02:33:38;;;;;;;18.48;13.68;;;;;;;12.03;98.12;100027.03;5051409;28;20700;-45
2023/03/23 02:36:28;;;;;;;19.70;14.00;;;;;;;12.06;98.23;100037.44;5052768;28;20487;-44
2023/03/23 02:39:09;;;;;;;18.48;13.45;;;;;;;12.06;98.02;100028.31;5052465;28;20506;-43
2023/03/23 02:42:00;;;;;;;18.27;13.30;;;;;;;12.05;97.85;100024.72;5052677;28;20025;-44
2023/03/23 02:44:29;;;;;;;18.38;13.18;;;;;;;12.01;97.92;100027.34;5052456;28;20495;-46
2023/03/23 02:46:57;;;;;;;18.83;13.18;;;;;;;12.00;97.90;100016.63;5052657;28;20066;-45
2023/03/23 02:49:24;;;;;;;19.20;13.05;;;;;;;11.96;98.00;100005.38;5052620;28;20029;-45
2023/03/23 02:51:52;;;;;;;18.52;13.15;;;;;;;12.00;97.55;100017.41;5052620;28;20029;-46
2023/03/23 02:54:19;;;;;;;19.17;13.25;;;;;;;11.99;97.71;100021.38;5052517;28;20436;-48
2023/03/23 02:56:46;;;;;;;19.55;13.52;;;;;;;12.01;97.63;100030.13;5052124;28;20025;-45
2023/03/23 02:59:11;;;;;;;18.02;13.15;;;;;;;12.01;97.35;100032.09;5052332;28;20029;-44
2023/03/23 03:01:37;;;;;;;18.98;13.25;;;;;;;12.01;97.57;100024.59;5052162;28;20047;-45
2023/03/23 03:04:15;;;;;;;18.85;13.50;;;;;;;12.00;97.67;100028.50;5052164;28;20091;-45
2023/03/23 03:06:56;;;;;;;21.17;13.57;;;;;;;11.99;97.80;100018.59;5052119;28;20060;-45
2023/03/23 03:09:46;;;;;;;17.90;13.27;;;;;;;12.00;98.27;100019.38;5050638;28;20035;-45
2023/03/23 03:12:32;;;;;;;18.55;13.20;;;;;;;12.00;97.71;100022.97;5051424;28;20029;-44
2023/03/23 03:15:09;;;;;;;18.73;13.77;;;;;;;12.00;97.63;100034.03;5052182;28;20147;-45
2023/03/23 03:17:43;;;;;;;18.50;13.07;;;;;;;12.00;97.77;100028.50;5052005;28;20029;-47
2023/03/23 03:20:10;;;;;;;18.98;13.25;;;;;;;11.99;97.53;100029.69;5051876;28;20380;-47
2023/03/23 03:22:38;;;;;;;19.60;13.20;;;;;;;12.00;97.49;100022.16;5044543;28;20032;-45
2023/03/23 03:25:06;;;;;;;18.92;13.20;;;;;;;12.01;97.26;100038.44;5051770;28;20021;-45
2023/03/23 03:27:34;;;;;;;18.65;13.18;;;;;;;12.02;97.49;100031.75;5051895;28;20129;-45
2023/03/23 03:30:03;;;;;;;20.48;13.48;;;;;;;11.95;97.06;100025.09;5051113;28;20112;-44
2023/03/23 03:32:38;;;;;;;19.63;13.30;;;;;;;11.96;97.67;100027.53;5051940;28;20029;-46
2023/03/23 03:35:05;;;;;;;19.77;14.00;;;;;;;11.96;97.39;100026.72;5051888;28;20032;-45
2023/03/23 03:37:38;;;;;;;19.77;13.38;;;;;;;11.97;97.75;100022.78;5051860;28;20029;-45
2023/03/23 03:40:11;;;;;;;18.40;13.10;;;;;;;11.99;97.72;100031.63;5051718;28;20025;-45
2023/03/23 03:42:41;;;;;;;19.13;13.52;;;;;;;11.99;97.50;100032.44;5052110;28;20496;-44
2023/03/23 03:45:09;;;;;;;18.23;13.23;;;;;;;11.99;97.37;100031.63;5051713;28;20033;-46
2023/03/23 03:47:34;;;;;;;20.40;13.30;;;;;;;11.98;97.22;100032.75;5051670;28;20491;-45
2023/03/23 03:50:00;;;;;;;19.98;13.50;;;;;;;11.96;96.84;100023.94;5051410;28;20032;-44
2023/03/23 03:52:27;;;;;;;19.45;13.63;;;;;;;11.99;96.72;100034.41;5048253;28;20040;-45
2023/03/23 03:54:53;;;;;;;19.48;13.20;;;;;;;11.98;96.89;100039.13;5051548;28;20037;-45
2023/03/23 03:57:18;;;;;;;19.15;12.93;;;;;;;12.01;96.36;100034.88;5050396;28;20047;-44
2023/03/23 03:59:43;;;;;;;17.90;13.15;;;;;;;12.00;95.80;100028.50;5051641;28;20056;-44
2023/03/23 04:02:13;;;;;;;20.10;13.30;;;;;;;12.00;95.82;100036.03;5051634;28;20044;-45
2023/03/23 04:04:38;;;;;;;19.02;12.77;;;;;;;12.02;94.99;100044.81;5050053;28;20395;-45
2023/03/23 04:07:05;;;;;;;18.60;12.80;;;;;;;12.02;94.71;100042.84;5050488;28;20024;-45
2023/03/23 04:09:31;;;;;;;18.23;13.10;;;;;;;12.04;94.64;100050.03;5051172;28;20033;-46
2023/03/23 04:11:56;;;;;;;19.13;12.63;;;;;;;12.04;94.71;100048.06;5051597;28;20415;-44
2023/03/23 04:14:21;;;;;;;18.20;12.85;;;;;;;12.04;94.63;100045.31;5051552;28;20538;-47
2023/03/23 04:16:47;;;;;;;18.98;12.60;;;;;;;12.05;94.38;100041.34;5051351;28;20029;-48
2023/03/23 04:19:12;;;;;;;18.45;12.75;;;;;;;12.06;94.39;100047.72;5051065;28;20028;-47
2023/03/23 04:21:38;;;;;;;19.13;12.30;;;;;;;12.05;94.04;100037.78;5042793;28;20395;-44
2023/03/23 04:24:03;;;;;;;19.80;12.65;;;;;;;11.98;93.87;100041.91;5054359;28;20033;-45
2023/03/23 04:26:29;;;;;;;18.52;12.70;;;;;;;12.00;93.75;100047.91;5055137;28;20386;-45
2023/03/23 04:28:55;;;;;;;19.27;12.63;;;;;;;12.02;93.38;100048.38;5055102;28;20029;-48
2023/03/23 04:31:24;;;;;;;19.08;12.43;;;;;;;12.04;93.22;100047.25;5054540;28;20033;-44
2023/03/23 04:33:52;;;;;;;18.95;12.20;;;;;;;12.02;92.74;100053.94;5055277;28;20116;-45
2023/03/23 04:36:18;;;;;;;20.45;12.35;;;;;;;12.01;92.44;100057.84;5054880;28;20480;-47
2023/03/23 04:38:43;;;;;;;19.75;12.35;;;;;;;12.01;92.12;100057.84;5054955;28;20036;-48
2023/03/23 04:41:09;;;;;;;18.80;11.70;;;;;;;12.02;92.35;100076.09;5054922;28;20033;-45
2023/03/23 04:43:41;;;;;;;18.98;12.30;;;;;;;12.00;92.00;100061.75;5054928;28;20091;-48
2023/03/23 04:46:08;;;;;;;19.85;12.25;;;;;;;12.00;92.27;100072.06;5055045;28;20520;-45
2023/03/23 04:48:34;;;;;;;20.00;12.00;;;;;;;11.99;92.11;100074.03;5054756;28;20498;-47
2023/03/23 04:51:02;;;;;;;19.08;11.80;;;;;;;11.98;92.02;100066.03;5054719;28;20029;-47
2023/03/23 04:53:28;;;;;;;19.95;11.60;;;;;;;11.99;92.10;100065.72;5054828;28;20029;-45
2023/03/23 04:55:54;;;;;;;20.00;11.95;;;;;;;11.99;91.56;100062.94;5054603;28;20033;-48
2023/03/23 04:58:20;;;;;;;21.00;12.00;;;;;;;12.01;91.07;100068.13;5054455;28;20025;-47
2023/03/23 05:00:49;;;;;;;20.15;11.60;;;;;;;11.99;91.52;100074.03;5053186;28;20145;-45
2023/03/23 05:03:18;;;;;;;19.83;11.93;;;;;;;12.00;91.13;100080.38;5054874;28;20032;-47
2023/03/23 05:05:51;;;;;;;19.65;12.18;;;;;;;12.00;91.45;100069.28;5054466;28;20498;-48
2023/03/23 05:08:18;;;;;;;18.50;12.20;;;;;;;11.99;90.99;100065.72;5054496;28;20472;-45
2023/03/23 05:10:53;;;;;;;19.80;11.85;;;;;;;11.98;92.00;100069.63;5054391;28;20017;-48
2023/03/23 05:13:19;;;;;;;18.70;11.73;;;;;;;11.99;91.10;100067.66;5054508;28;20041;-45
2023/03/23 05:15:44;;;;;;;18.65;11.68;;;;;;;12.00;91.40;100072.06;5052134;28;20025;-46
2023/03/23 05:18:10;;;;;;;18.25;11.90;;;;;;;11.98;91.39;100069.63;5053599;28;20488;-45
2023/03/23 05:20:36;;;;;;;19.15;11.73;;;;;;;11.96;91.04;100065.50;5054303;28;20052;-44
2023/03/23 05:23:02;;;;;;;19.65;11.77;;;;;;;11.94;91.09;100070.59;5046603;28;20033;-45
2023/03/23 05:25:27;;;;;;;18.10;11.77;;;;;;;11.95;91.39;100073.03;5053917;28;20068;-46
2023/03/23 05:27:53;;;;;;;17.73;11.68;;;;;;;11.97;91.49;100078.22;5052490;28;20025;-43
2023/03/23 05:30:21;;;;;;;19.67;11.73;;;;;;;11.96;92.02;100071.88;5053976;28;20025;-46
2023/03/23 05:32:50;;;;;;;19.42;11.70;;;;;;;11.94;90.92;100067.84;5054001;28;20104;-44
2023/03/23 05:35:17;;;;;;;17.92;11.60;;;;;;;11.94;90.91;100074.16;5053345;28;20052;-45
2023/03/23 05:37:43;;;;;;;17.30;11.45;;;;;;;11.91;91.27;100080.38;5053923;28;20044;-44
2023/03/23 05:40:09;;;;;;;17.52;11.70;;;;;;;11.91;90.76;100080.38;5053733;28;20083;-44
2023/03/23 05:42:35;;;;;;;18.88;11.85;;;;;;;11.91;90.99;100074.81;5053803;28;20507;-44
2023/03/23 05:45:03;;;;;;;18.83;12.00;;;;;;;11.89;90.89;100077.16;5053703;28;20026;-44
2023/03/23 05:47:29;;;;;;;17.65;11.65;;;;;;;11.91;90.60;100074.03;5053530;28;20035;-46
2023/03/23 05:49:54;;;;;;;17.40;11.55;;;;;;;11.90;90.89;100084.31;5053804;28;20033;-47
2023/03/23 05:52:21;;;;;;;18.42;11.50;;;;;;;11.90;91.16;100084.31;5053556;28;20033;-44
2023/03/23 05:54:46;;;;;;;20.15;11.55;;;;;;;11.90;91.17;100083.50;5053393;28;20065;-46
2023/03/23 05:57:12;;;;;;;18.75;11.50;;;;;;;11.89;91.41;100081.84;5053399;28;20044;-44
2023/03/23 05:59:37;;;;;;;19.33;11.90;;;;;;;11.89;91.63;100079.91;5052042;28;20483;-43
2023/03/23 06:02:04;;;;;;;18.38;11.90;;;;;;;11.90;92.27;100083.50;5050847;28;20116;-44
2023/03/23 06:04:29;;;;;;;18.38;11.60;;;;;;;11.93;92.45;100083.63;5053521;28;20405;-43
2023/03/23 06:06:54;;;;;;;20.00;11.70;;;;;;;11.87;91.80;100096.06;5053104;28;20529;-47
2023/03/23 06:09:20;;;;;;;19.52;11.13;;;;;;;11.84;92.38;100086.47;5053378;28;20131;-44
2023/03/23 06:11:47;;;;;;;18.42;11.25;;;;;;;11.89;93.02;100093.78;5053304;28;20033;-47
2023/03/23 06:14:13;;;;;;;18.45;11.23;;;;;;;11.97;92.88;100089.31;5053093;28;20021;-44
2023/03/23 06:16:38;;;;;;;19.10;11.30;;;;;;;12.06;92.57;100092.88;5052864;28;20470;-44
2023/03/23 06:19:03;;;;;;;17.33;11.07;;;;;;;12.16;92.24;100097.25;5052924;28;20104;-45
2023/03/23 06:21:30;;;;;;;19.38;10.80;;;;;;;12.20;91.29;100109.28;5046228;28;20482;-43
2023/03/23 06:23:55;;;;;;;18.80;11.07;;;;;;;12.28;91.59;100122.28;5050930;28;20025;-45
2023/03/23 06:26:25;;;;;;;20.85;11.02;;;;;;;12.27;91.06;100117.06;5051337;28;20040;-45
2023/03/23 06:28:50;;;;;;;18.63;10.70;;;;;;;12.24;90.90;100121.34;5052758;28;20028;-43
2023/03/23 06:31:17;;;;;;;17.60;10.85;;;;;;;12.24;91.10;100134.38;5052226;28;20035;-44
2023/03/23 06:33:42;;;;;;;18.73;11.10;;;;;;;12.21;90.61;100129.50;5053362;28;20076;-47
2023/03/23 06:36:08;;;;;;;18.95;10.60;;;;;;;12.25;90.69;100149.88;5049521;28;20064;-45
2023/03/23 06:38:33;;;;;;;19.10;10.90;;;;;;;12.27;90.31;100142.03;5052648;28;20494;-45
2023/03/23 06:40:58;;;;;;;16.67;10.70;;;;;;;12.29;90.15;100148.84;5052540;28;20453;-44
2023/03/23 06:43:24;;;;;;;19.98;10.65;;;;;;;12.33;89.75;100146.22;5052286;28;20032;-47
2023/03/23 06:45:50;;;;;;;18.95;10.77;;;;;;;12.35;89.60;100145.91;5051628;28;20039;-47
2023/03/23 06:48:16;;;;;;;20.40;11.07;;;;;;;12.33;89.61;100151.78;5047852;28;20025;-44
2023/03/23 06:50:45;;;;;;;18.10;10.80;;;;;;;12.34;89.86;100158.94;5041305;28;20136;-47
2023/03/23 06:53:11;;;;;;;18.50;10.90;;;;;;;12.34;89.41;100164.50;5035909;28;20435;-45
2023/03/23 06:55:37;;;;;;;19.17;11.07;;;;;;;12.32;89.99;100153.75;5032235;28;20477;-44
2023/03/23 06:58:03;;;;;;;18.73;11.30;;;;;;;12.29;90.10;100162.72;5032317;28;20064;-44
2023/03/23 07:00:29;;;;;;;19.00;11.35;;;;;;;12.27;91.29;100161.44;5032556;28;20069;-44
2023/03/23 07:02:55;;;;;;;17.42;10.88;;;;;;;12.25;91.71;100169.28;5030858;28;20559;-43
2023/03/23 07:05:20;;;;;;;17.08;10.60;;;;;;;12.23;92.10;100168.81;5030479;28;20036;-45
2023/03/23 07:07:46;;;;;;;18.75;10.73;;;;;;;12.22;91.27;100170.78;5030670;28;20045;-44
2023/03/23 07:10:11;;;;;;;20.55;11.23;;;;;;;12.19;91.20;100176.97;5030443;28;20120;-44
2023/03/23 07:12:37;;;;;;;20.98;11.02;;;;;;;12.22;90.88;100176.31;5028690;28;20116;-44
2023/03/23 07:15:04;;;;;;;17.85;10.80;;;;;;;12.21;90.71;100180.22;5029052;28;20037;-43
2023/03/23 07:17:29;;;;;;;17.25;10.50;;;;;;;12.20;91.45;100184.16;5029316;28;20037;-44
2023/03/23 07:19:55;;;;;;;18.75;10.80;;;;;;;12.17;91.50;100195.94;5030582;28;20090;-44
2023/03/23 07:22:20;;;;;;;18.30;10.80;;;;;;;12.10;92.85;100199.22;5030759;28;20088;-44
2023/03/23 07:24:46;;;;;;;20.15;10.88;;;;;;;12.06;93.75;100178.81;5030700;28;20510;-43
2023/03/23 07:27:11;;;;;;;18.35;10.73;;;;;;;12.05;94.66;100184.72;5031592;28;20025;-45
2023/03/23 07:29:38;;;;;;;18.95;10.70;;;;;;;12.01;95.79;100190.09;5031911;28;20025;-44
2023/03/23 07:32:05;;;;;;;19.42;11.05;;;;;;;11.95;96.02;100189.44;5030621;28;20428;-45
2023/03/23 07:34:31;;;;;;;17.63;10.60;;;;;;;11.95;96.51;100183.91;5032080;28;20029;-44
2023/03/23 07:36:57;;;;;;;18.02;10.70;;;;;;;11.94;97.31;100187.81;5031949;28;20029;-44
2023/03/23 07:39:23;;;;;;;18.73;10.80;;;;;;;11.93;96.99;100194.50;5031802;28;20055;-43
2023/03/23 07:41:49;;;;;;;17.48;10.40;;;;;;;11.90;96.14;100191.59;5031904;28;20029;-45
2023/03/23 07:44:14;;;;;;;14.50;10.00;;;;;;;11.91;95.74;100204.28;5032035;28;20064;-45
2023/03/23 07:46:41;;;;;;;16.15;9.80;;;;;;;11.85;93.38;100210.00;5032019;28;20484;-45
2023/03/23 07:49:07;;;;;;;14.73;9.60;;;;;;;11.73;91.91;100215.44;5031984;28;20481;-43
2023/03/23 07:51:33;;;;;;;13.45;9.68;;;;;;;11.64;91.28;100207.13;5031826;28;20037;-44
2023/03/23 07:53:59;;;;;;;14.32;9.90;;;;;;;11.55;92.00;100200.78;5031824;28;20025;-44
2023/03/23 07:56:24;;;;;;;12.48;9.65;;;;;;;11.49;90.69;100213.19;5031541;28;20021;-47
2023/03/23 07:58:51;;;;;;;15.20;9.48;;;;;;;11.43;89.68;100217.28;5034944;28;20041;-44
2023/03/23 08:01:16;;;;;;;13.70;9.13;;;;;;;11.37;89.51;100222.97;5035943;28;20025;-46
2023/03/23 08:03:42;;;;;;;14.80;9.40;;;;;;;11.34;89.33;100222.81;5046295;28;20091;-43
2023/03/23 08:06:08;;;;;;;12.63;9.50;;;;;;;11.29;89.35;100237.63;5053640;28;20033;-42
2023/03/23 08:08:34;;;;;;;14.63;9.60;;;;;;;11.23;89.32;100234.22;5052074;28;20025;-44
2023/03/23 08:10:59;;;;;;;15.10;10.00;;;;;;;11.21;89.95;100233.72;5053453;28;20433;-44
2023/03/23 08:13:24;;;;;;;15.95;10.00;;;;;;;11.15;89.53;100236.97;5053405;28;20029;-44
2023/03/23 08:15:51;;;;;;;14.15;9.70;;;;;;;11.14;91.24;100235.38;5051997;28;20040;-44
2023/03/23 08:18:17;;;;;;;14.07;9.88;;;;;;;11.18;91.60;100234.41;5053220;28;20458;-42
2023/03/23 08:20:42;;;;;;;12.77;9.80;;;;;;;11.23;92.36;100239.75;5051781;28;20137;-43
2023/03/23 08:23:08;;;;;;;13.02;9.63;;;;;;;11.26;92.50;100249.34;5051438;28;20033;-44
2023/03/23 08:25:34;;;;;;;15.00;10.50;;;;;;;11.30;92.98;100250.34;5053125;28;20036;-44
2023/03/23 08:28:01;;;;;;;14.73;10.50;;;;;;;11.38;93.08;100251.50;5053319;28;20032;-43
2023/03/23 08:30:29;;;;;;;14.85;10.50;;;;;;;11.45;93.63;100249.03;5053176;28;20021;-45
2023/03/23 08:32:56;;;;;;;16.17;10.30;;;;;;;11.48;92.84;100250.34;5053193;28;20032;-43
2023/03/23 08:35:21;;;;;;;14.20;10.10;;;;;;;11.49;92.63;100263.84;5053129;28;20052;-46
2023/03/23 08:37:50;;;;;;;14.85;10.10;;;;;;;11.49;92.30;100265.81;5051559;28;20431;-44
2023/03/23 08:40:19;;;;;;;14.82;10.25;;;;;;;11.47;92.75;100251.47;5052367;28;20025;-43
2023/03/23 08:42:45;;;;;;;15.13;10.25;;;;;;;11.50;92.26;100234.22;5053165;28;20182;-43
2023/03/23 08:45:13;;;;;;;13.48;9.90;;;;;;;11.52;91.97;100246.59;5052859;28;20036;-42
2023/03/23 08:47:40;;;;;;;16.15;10.20;;;;;;;11.55;92.58;100245.13;5052682;28;20036;-44
2023/03/23 08:50:08;;;;;;;15.82;9.98;;;;;;;11.53;91.98;100233.53;5052804;28;20118;-43
2023/03/23 08:52:33;;;;;;;16.45;9.88;;;;;;;11.58;91.90;100251.94;5051400;28;20493;-46
2023/03/23 08:54:59;;;;;;;15.00;9.98;;;;;;;11.57;90.95;100258.66;5052781;28;20029;-45
2023/03/23 08:57:25;;;;;;;16.02;10.20;;;;;;;11.56;91.24;100266.13;5052827;28;20032;-44
2023/03/23 08:59:51;;;;;;;15.13;9.70;;;;;;;11.57;90.90;100244.81;5051418;28;20033;-45
2023/03/23 09:02:17;;;;;;;15.93;10.20;;;;;;;11.61;91.91;100252.13;5051338;28;20052;-43
2023/03/23 09:04:42;;;;;;;15.80;10.00;;;;;;;11.65;89.59;100269.72;5051166;28;20109;-43
2023/03/23 09:07:12;;;;;;;15.35;10.25;;;;;;;11.66;91.20;100265.81;5052594;28;20032;-44
2023/03/23 09:09:42;;;;;;;16.60;10.45;;;;;;;11.69;91.27;100267.94;5051387;28;20033;-44
2023/03/23 09:12:08;;;;;;;16.27;10.10;;;;;;;11.77;90.86;100268.25;5052359;28;20036;-44
2023/03/23 09:14:36;;;;;;;14.80;10.07;;;;;;;11.75;91.15;100264.97;5050992;28;20468;-44
2023/03/23 09:17:02;;;;;;;14.45;10.43;;;;;;;11.80;90.61;100245.41;5052252;28;20158;-43
2023/03/23 09:19:28;;;;;;;16.30;9.85;;;;;;;11.84;90.90;100244.44;5052268;28;20025;-44
2023/03/23 09:21:54;;;;;;;15.60;10.30;;;;;;;11.86;91.05;100239.34;5051860;28;20064;-43
2023/03/23 09:24:19;;;;;;;14.60;10.23;;;;;;;11.87;90.73;100234.63;5050278;28;20025;-44
2023/03/23 09:26:45;;;;;;;15.15;10.45;;;;;;;11.82;91.78;100243.09;5052190;28;20033;-44
2023/03/23 09:29:11;;;;;;;16.35;9.93;;;;;;;11.77;91.63;100254.38;5051959;28;20032;-47
2023/03/23 09:31:36;;;;;;;16.38;10.38;;;;;;;11.76;91.95;100264.63;5051877;28;20033;-46
2023/03/23 09:34:04;;;;;;;16.48;10.30;;;;;;;11.78;91.65;100273.44;5052131;28;20453;-46
2023/03/23 09:36:31;;;;;;;16.73;10.35;;;;;;;11.77;91.64;100262.69;5051919;28;20032;-43
2023/03/23 09:38:57;;;;;;;15.50;10.35;;;;;;;11.79;91.48;100265.97;5051911;28;20032;-44
2023/03/23 09:41:34;;;;;;;16.00;10.18;;;;;;;11.79;92.24;100260.41;5051646;28;20085;-43
2023/03/23 09:44:14;;;;;;;16.90;10.00;;;;;;;11.78;92.66;100262.34;5051939;28;20036;-44
2023/03/23 09:46:58;;;;;;;16.70;10.38;;;;;;;11.88;92.46;100279.78;5051792;28;20036;-44
2023/03/23 09:49:32;;;;;;;16.10;9.90;;;;;;;11.81;90.40;100272.78;5051596;28;20395;-44
2023/03/23 09:52:01;;;;;;;;;;;;;;;11.89;91.47;100284.19;5052121;28;20029;-44
2023/03/23 09:54:30;;;;;;;16.00;10.55;;;;;;;11.85;91.92;100268.22;5051633;28;19916;-45
2023/03/23 09:56:58;;;;;;;16.23;10.50;;;;;;;11.88;91.57;100279.78;5051156;28;20029;-44
2023/03/23 09:59:36;;;;;;;15.95;10.20;;;;;;;11.90;91.13;100274.72;5051345;28;20036;-44
2023/03/23 10:02:14;;;;;;;15.75;10.45;;;;;;;11.92;90.66;100283.53;5051371;28;20128;-43
2023/03/23 10:04:46;;;;;;;16.52;10.05;;;;;;;11.93;90.37;100294.28;5051566;28;20040;-44
2023/03/23 10:07:20;;;;;;;17.08;9.98;;;;;;;11.95;91.31;100297.56;5051184;28;20025;-44
2023/03/23 10:10:02;;;;;;;15.05;10.18;;;;;;;11.97;91.37;100297.22;5051207;28;20037;-44
2023/03/23 10:12:31;;;;;;;15.40;9.70;;;;;;;12.08;91.04;100297.72;5051782;28;20033;-44
2023/03/23 10:15:08;;;;;;;16.15;9.70;;;;;;;12.12;91.05;100301.44;5051569;28;20029;-43
2023/03/23 10:17:45;;;;;;;15.93;9.90;;;;;;;12.11;89.57;100285.97;5051141;28;20104;-44
2023/03/23 10:20:14;;;;;;;17.38;9.73;;;;;;;12.19;87.36;100300.94;5050734;28;20039;-43
2023/03/23 10:22:45;;;;;;;17.05;10.07;;;;;;;12.20;88.99;100289.53;5051352;28;20029;-48
2023/03/23 10:25:17;;;;;;;18.70;10.15;;;;;;;12.36;90.02;100295.34;5048047;28;20106;-44
2023/03/23 10:28:10;;;;;;;15.18;9.90;;;;;;;12.50;90.04;100308.19;5050798;28;20289;-43
2023/03/23 10:30:42;;;;;;;17.55;10.40;;;;;;;12.55;88.48;100302.44;5051122;28;20037;-44
2023/03/23 10:33:25;;;;;;;17.77;10.60;;;;;;;12.68;89.82;100309.75;5050703;28;20059;-43
2023/03/23 10:36:01;;;;;;;17.17;10.13;;;;;;;12.75;87.21;100315.59;5050964;28;20040;-44
2023/03/23 10:38:33;;;;;;;17.58;10.80;;;;;;;12.82;86.50;100311.47;5049514;28;20072;-43
2023/03/23 10:41:24;;;;;;;17.55;10.82;;;;;;;12.93;86.14;100315.50;5050592;28;20028;-43
2023/03/23 10:43:52;;;;;;;17.85;10.57;;;;;;;12.95;84.50;100316.78;5050244;28;20044;-44
2023/03/23 10:46:53;;;;;;;18.67;11.02;;;;;;;13.06;85.72;100324.72;5050738;28;20029;-43
2023/03/23 10:49:25;;;;;;;17.73;10.85;;;;;;;13.09;85.09;100313.75;5050324;28;20120;-43
2023/03/23 10:52:32;;;;;;;20.02;11.00;;;;;;;13.17;84.91;100317.63;5050422;28;20036;-43
2023/03/23 10:55:03;;;;;;;16.67;10.60;;;;;;;13.23;85.01;100324.63;5050513;28;20342;-44
2023/03/23 10:57:31;;;;;;;17.70;10.80;;;;;;;13.35;84.81;100317.50;5048927;28;20395;-44
2023/03/23 11:00:08;;;;;;;17.67;10.70;;;;;;;13.47;83.49;100319.56;5048881;28;20036;-44
2023/03/23 11:02:56;;;;;;;16.33;10.32;;;;;;;13.56;84.50;100310.03;5044390;28;20247;-42
2023/03/23 11:05:26;;;;;;;16.92;10.70;;;;;;;13.74;83.85;100304.31;5049441;28;20167;-45
2023/03/23 11:07:56;;;;;;;17.27;10.45;;;;;;;13.72;82.66;100301.06;5046961;28;20036;-42
2023/03/23 11:10:37;;;;;;;16.05;10.30;;;;;;;13.75;82.80;100305.13;5046583;28;20063;-43
2023/03/23 11:13:04;;;;;;;17.52;10.60;;;;;;;13.77;82.88;100311.16;5050236;28;20037;-43
2023/03/23 11:15:40;;;;;;;17.75;10.40;;;;;;;13.81;82.64;100298.22;5049995;28;20036;-43
2023/03/23 11:18:18;;;;;;;16.38;9.88;;;;;;;13.93;81.77;100305.78;5049855;28;20035;-43